createdAt,value
2022-10-21T13:06:37.392Z,59.80
2022-10-21T13:10:40.763Z,59.30
2022-10-21T13:14:47.903Z,59.90
2022-10-21T13:18:51.081Z,59.70
2022-10-21T13:23:14.762Z,59.30
2022-10-21T13:27:36.779Z,58.80
2022-10-21T13:31:40.568Z,59.40
2022-10-21T13:35:45.053Z,58.90
2022-10-21T13:39:52.533Z,58.80
2022-10-21T13:43:59.458Z,59.20
2022-10-21T13:48:15.446Z,59.20
2022-10-21T13:52:26.613Z,59.80
2022-10-21T13:56:36.065Z,60.20
2022-10-21T14:00:41.835Z,60.30
2022-10-21T14:04:47.882Z,60.90
2022-10-21T14:08:51.239Z,61.70
2022-10-21T14:12:57.298Z,61.80
2022-10-21T14:17:18.736Z,62.00
2022-10-21T14:21:49.297Z,61.50
2022-10-21T14:30:50.156Z,62.30
2022-10-21T14:35:12.386Z,62.70
2022-10-21T14:39:21.125Z,62.40
2022-10-21T14:54:32.197Z,62.90
2022-10-21T14:58:38.261Z,64.50
2022-10-21T15:02:45.663Z,64.90
2022-10-21T15:07:02.244Z,64.80
2022-10-21T15:11:05.719Z,65.60
2022-10-21T15:15:49.736Z,65.30
2022-10-21T15:19:58.120Z,64.90
2022-10-21T15:29:06.003Z,65.20
2022-10-21T15:33:44.186Z,66.20
2022-10-21T15:38:07.651Z,65.20
2022-10-21T15:42:57.914Z,66.40
2022-10-21T15:47:11.314Z,66.50
2022-10-21T15:51:18.066Z,66.40
2022-10-21T15:55:23.317Z,67.20
2022-10-21T15:59:35.105Z,65.70
2022-10-21T16:03:45.909Z,67.00
2022-10-21T16:07:52.404Z,66.80
2022-10-21T16:12:01.861Z,66.40
2022-10-21T16:16:25.289Z,66.00
2022-10-21T16:20:42.832Z,66.10
2022-10-21T16:25:16.985Z,65.60
2022-10-21T16:29:27.851Z,65.10
2022-10-21T16:33:59.959Z,64.90
2022-10-21T16:43:01.420Z,64.70
2022-10-21T16:47:07.020Z,64.40
2022-10-21T16:51:15.267Z,64.30
2022-10-21T16:55:46.683Z,64.50
2022-10-21T16:59:57.565Z,64.30
2022-10-21T17:04:09.662Z,64.40
2022-10-21T17:08:12.532Z,64.30
2022-10-21T17:12:15.397Z,64.40
2022-10-21T17:16:20.436Z,64.30
2022-10-21T17:20:23.266Z,64.30
2022-10-21T17:24:27.889Z,64.30
2022-10-21T17:28:30.701Z,64.40
2022-10-21T17:32:33.848Z,64.30
2022-10-21T17:36:38.901Z,64.40
2022-10-21T17:40:41.802Z,64.20
2022-10-21T17:44:45.535Z,64.00
2022-10-21T17:48:52.626Z,63.60
2022-10-21T17:52:57.820Z,63.30
2022-10-21T17:57:03.001Z,62.90
2022-10-21T18:01:08.997Z,62.50
2022-10-21T18:05:11.989Z,62.70
2022-10-21T18:09:15.690Z,62.00
2022-10-21T18:13:19.914Z,61.50
2022-10-21T18:17:22.802Z,61.10
2022-10-21T18:21:26.140Z,60.70
2022-10-21T18:25:28.901Z,60.50
2022-10-21T18:29:32.311Z,60.40
2022-10-21T18:33:35.379Z,60.30
2022-10-21T18:37:38.841Z,60.20
2022-10-21T18:41:42.377Z,60.00
2022-10-21T18:45:47.875Z,59.80
2022-10-21T18:49:56.014Z,59.50
2022-10-21T18:54:01.171Z,59.50
2022-10-21T18:58:04.961Z,59.50
2022-10-21T19:02:37.289Z,59.50
2022-10-21T19:06:43.333Z,59.40
2022-10-21T19:10:46.947Z,59.10
2022-10-21T19:14:50.030Z,59.20
2022-10-21T19:18:54.787Z,59.30
2022-10-21T19:23:00.059Z,59.40
2022-10-21T19:27:03.137Z,59.20
2022-10-21T19:31:12.205Z,59.20
2022-10-21T19:35:15.717Z,59.30
2022-10-21T19:39:20.979Z,59.30
2022-10-21T19:43:28.740Z,59.30
2022-10-21T19:47:36.883Z,59.40
2022-10-21T19:51:41.035Z,59.50
2022-10-21T19:55:51.094Z,59.70
2022-10-21T19:59:56.513Z,59.70
2022-10-21T20:04:02.106Z,59.60
2022-10-21T20:08:09.299Z,59.50
2022-10-21T20:12:14.125Z,59.70
2022-10-21T20:16:22.286Z,59.80
2022-10-21T20:20:29.807Z,59.90
2022-10-21T20:24:46.322Z,60.10
2022-10-21T20:28:53.975Z,60.40
2022-10-21T20:32:57.073Z,60.70
2022-10-21T20:37:00.967Z,61.00
2022-10-21T20:41:08.375Z,61.20
2022-10-21T20:45:12.199Z,61.30
2022-10-21T20:49:17.247Z,61.50
2022-10-21T20:53:19.959Z,61.70
2022-10-21T20:57:23.448Z,61.90
2022-10-21T21:01:31.495Z,62.20
2022-10-21T21:05:38.117Z,62.60
2022-10-21T21:10:01.571Z,63.00
2022-10-21T21:14:09.065Z,63.10
2022-10-21T21:18:14.620Z,63.40
2022-10-21T21:22:18.247Z,63.60
2022-10-21T21:26:23.616Z,63.80
2022-10-21T21:30:26.632Z,64.00
2022-10-21T21:34:29.662Z,64.10
2022-10-21T21:38:48.991Z,64.40
2022-10-21T21:42:58.359Z,64.70
2022-10-21T21:47:08.224Z,65.70
2022-10-21T21:51:14.698Z,66.10
2022-10-21T21:55:20.120Z,67.00
2022-10-21T21:59:26.548Z,67.00
2022-10-21T22:03:35.374Z,67.40
2022-10-21T22:07:47.505Z,67.70
2022-10-21T22:11:50.346Z,67.90
2022-10-21T22:15:55.029Z,67.90
2022-10-21T22:20:12.209Z,67.80
2022-10-21T22:24:23.069Z,67.90
2022-10-21T22:28:26.211Z,67.50
2022-10-21T22:32:29.248Z,68.30
2022-10-21T22:36:32.527Z,68.40
2022-10-21T22:40:35.546Z,68.70
2022-10-21T22:44:38.398Z,68.60
2022-10-21T22:48:49.819Z,68.80
2022-10-21T22:52:54.143Z,69.00
2022-10-21T22:57:01.813Z,68.60
2022-10-21T23:01:12.742Z,68.70
2022-10-21T23:05:17.368Z,68.90
2022-10-21T23:09:20.197Z,68.60
2022-10-21T23:13:25.302Z,68.90
2022-10-21T23:17:30.548Z,69.40
2022-10-21T23:21:34.446Z,69.60
2022-10-21T23:25:37.389Z,70.00
2022-10-21T23:29:41.469Z,70.40
2022-10-21T23:33:49.692Z,70.30
2022-10-21T23:38:04.290Z,70.80
2022-10-21T23:42:12.934Z,69.90
2022-10-21T23:46:24.208Z,71.20
2022-10-21T23:50:28.967Z,71.90
2022-10-21T23:54:33.485Z,72.40
2022-10-21T23:58:38.113Z,72.50
